createdAt,value
2022-12-01T00:00:26.652Z,28.73
2022-12-01T00:05:28.042Z,25.92
2022-12-01T00:10:29.415Z,26.75
2022-12-01T00:15:36.747Z,22.88
2022-12-01T00:20:40.123Z,21.35
2022-12-01T00:25:41.510Z,21.08
2022-12-01T00:30:42.882Z,22.70
2022-12-01T00:35:44.406Z,20.83
2022-12-01T00:40:45.765Z,21.42
2022-12-01T00:45:47.232Z,23.48
2022-12-01T00:50:51.348Z,23.17
2022-12-01T00:55:55.667Z,19.65
2022-12-01T01:01:01.718Z,20.65
2022-12-01T01:06:08.096Z,21.52
2022-12-01T01:11:09.720Z,22.50
2022-12-01T01:16:20.142Z,21.77
2022-12-01T01:21:22.026Z,21.10
2022-12-01T01:26:27.954Z,23.63
2022-12-01T01:31:30.669Z,21.25
2022-12-01T01:36:32.162Z,20.58
2022-12-01T01:41:33.542Z,19.65
2022-12-01T01:46:35.449Z,21.27
2022-12-01T01:51:41.929Z,19.48
2022-12-01T01:56:44.730Z,21.05
2022-12-01T02:01:50.463Z,23.75
2022-12-01T02:06:51.896Z,20.77
2022-12-01T02:12:41.789Z,20.60
2022-12-01T02:18:21.915Z,18.17
2022-12-01T02:23:58.250Z,21.98
2022-12-01T02:29:02.275Z,20.20
2022-12-01T02:34:18.678Z,20.15
2022-12-01T02:39:52.163Z,20.48
2022-12-01T02:44:54.528Z,20.15
2022-12-01T02:49:58.343Z,23.85
2022-12-01T02:54:59.708Z,20.63
2022-12-01T03:00:01.792Z,23.83
2022-12-01T03:05:42.446Z,21.77
2022-12-01T03:10:55.089Z,19.60
2022-12-01T03:16:15.863Z,22.10
2022-12-01T03:21:24.597Z,18.45
2022-12-01T03:26:30.074Z,19.17
2022-12-01T03:31:37.629Z,20.50
2022-12-01T03:36:45.287Z,19.23
2022-12-01T03:41:56.477Z,18.98
2022-12-01T03:47:08.598Z,22.83
2022-12-01T03:52:30.246Z,22.27
2022-12-01T03:57:46.127Z,23.95
2022-12-01T04:02:48.755Z,25.27
2022-12-01T04:07:50.302Z,20.10
2022-12-01T04:12:58.656Z,18.23
2022-12-01T04:18:00.087Z,21.05
2022-12-01T04:23:01.540Z,20.35
2022-12-01T04:28:02.974Z,18.77
2022-12-01T04:33:04.378Z,20.33
2022-12-01T04:38:05.808Z,18.30
2022-12-01T04:43:07.188Z,20.70
2022-12-01T04:48:08.598Z,18.98
2022-12-01T04:53:10.016Z,20.10
2022-12-01T04:58:11.470Z,21.05
2022-12-01T05:03:15.171Z,20.73
2022-12-01T05:08:16.794Z,24.17
2022-12-01T05:13:19.706Z,21.90
2022-12-01T05:18:21.188Z,18.80
2022-12-01T05:23:24.443Z,17.48
2022-12-01T05:33:28.925Z,19.30
2022-12-01T05:38:30.349Z,19.90
2022-12-01T05:43:31.815Z,20.15
2022-12-01T05:48:33.282Z,24.17
2022-12-01T05:53:34.774Z,25.40
2022-12-01T05:58:36.799Z,23.45
2022-12-01T06:03:38.333Z,23.30
2022-12-01T06:08:39.752Z,23.40
2022-12-01T06:13:41.183Z,22.48
2022-12-01T06:18:42.594Z,23.02
2022-12-01T06:23:44.146Z,21.23
2022-12-01T06:28:45.549Z,18.73
2022-12-01T06:33:47.186Z,18.05
2022-12-01T06:38:48.580Z,20.95
2022-12-01T06:43:50.093Z,18.95
2022-12-01T06:48:51.561Z,19.83
2022-12-01T06:53:54.738Z,19.13
2022-12-01T07:03:57.942Z,19.98
2022-12-01T07:08:59.416Z,19.38
2022-12-01T07:14:01.099Z,20.85
2022-12-01T07:19:02.578Z,20.77
2022-12-01T07:24:04.249Z,22.30
2022-12-01T07:29:05.914Z,20.92
2022-12-01T07:34:07.387Z,20.20
2022-12-01T07:39:08.940Z,19.98
2022-12-01T07:44:11.036Z,22.75
2022-12-01T07:49:14.895Z,21.95
2022-12-01T07:54:17.560Z,22.35
2022-12-01T07:59:19.061Z,22.63
2022-12-01T08:04:20.540Z,21.17
2022-12-01T08:09:21.941Z,22.15
2022-12-01T08:14:23.370Z,21.65
2022-12-01T08:19:25.755Z,22.23
2022-12-01T08:24:27.463Z,23.47
2022-12-01T08:29:28.918Z,22.17
2022-12-01T08:34:30.366Z,24.30
2022-12-01T08:39:31.824Z,22.70
2022-12-01T08:44:33.323Z,25.92
2022-12-01T08:49:35.114Z,26.17
2022-12-01T08:54:36.543Z,26.48
2022-12-01T08:59:37.950Z,28.42
2022-12-01T09:04:39.453Z,26.67
2022-12-01T09:09:40.843Z,25.63
2022-12-01T09:14:47.973Z,26.75
2022-12-01T09:19:49.644Z,26.40
2022-12-01T09:24:51.645Z,27.75
2022-12-01T09:29:53.063Z,26.10
2022-12-01T09:34:54.448Z,27.80
2022-12-01T09:39:56.082Z,25.75
2022-12-01T09:45:00.804Z,27.00
2022-12-01T09:50:14.728Z,26.38
2022-12-01T09:55:18.174Z,27.23
2022-12-01T10:00:22.622Z,27.48
2022-12-01T10:05:30.517Z,28.95
2022-12-01T10:10:39.843Z,29.17
2022-12-01T10:16:02.844Z,30.08
2022-12-01T10:21:25.634Z,28.77
2022-12-01T10:26:59.070Z,29.50
2022-12-01T10:32:13.941Z,28.52
2022-12-01T10:37:21.484Z,30.77
2022-12-01T10:42:43.985Z,31.48
2022-12-01T10:48:20.621Z,30.77
2022-12-01T10:53:28.342Z,30.60
2022-12-01T10:58:33.602Z,31.40
2022-12-01T11:03:36.364Z,28.65
2022-12-01T11:08:46.065Z,29.10
2022-12-01T11:13:47.470Z,28.70
2022-12-01T11:18:49.020Z,28.10
2022-12-01T11:23:52.510Z,26.40
2022-12-01T11:29:23.103Z,26.85
2022-12-01T11:34:28.816Z,27.88
2022-12-01T11:39:35.076Z,29.13
2022-12-01T11:44:51.240Z,29.02
2022-12-01T11:49:58.780Z,27.95
2022-12-01T11:55:12.204Z,27.35
2022-12-01T12:00:18.380Z,25.08
2022-12-01T12:05:28.635Z,26.98
2022-12-01T12:10:41.824Z,26.83
2022-12-01T12:21:24.216Z,25.50
2022-12-01T12:36:58.230Z,25.13
2022-12-01T12:42:08.581Z,26.73
2022-12-01T12:47:19.347Z,24.80
2022-12-01T12:52:28.447Z,26.13
2022-12-01T12:57:51.822Z,27.70
2022-12-01T13:08:33.142Z,27.40
2022-12-01T13:13:58.649Z,25.92
2022-12-01T13:19:05.819Z,26.80
2022-12-01T13:24:10.557Z,28.33
2022-12-01T13:29:17.689Z,30.23
2022-12-01T13:34:34.233Z,25.67
2022-12-01T13:39:41.054Z,25.67
2022-12-01T13:45:01.679Z,26.15
2022-12-01T13:50:38.983Z,26.08
2022-12-01T13:55:57.971Z,25.58
2022-12-01T14:01:21.367Z,27.75
2022-12-01T14:06:49.091Z,26.80
2022-12-01T14:11:58.240Z,27.75
2022-12-01T14:17:04.265Z,35.85
2022-12-01T14:22:07.751Z,26.90
2022-12-01T14:27:11.755Z,30.08
2022-12-01T14:32:15.988Z,30.45
2022-12-01T14:37:20.797Z,29.85
2022-12-01T14:42:44.117Z,29.13
2022-12-01T14:53:11.685Z,28.15
2022-12-01T14:58:33.659Z,29.15
2022-12-01T15:03:41.742Z,30.13
2022-12-01T15:08:58.164Z,31.80
2022-12-01T15:14:22.353Z,33.90
2022-12-01T15:19:23.806Z,36.85
2022-12-01T15:24:28.532Z,30.67
2022-12-01T15:29:36.969Z,29.60
2022-12-01T15:34:46.439Z,28.35
2022-12-01T15:40:47.812Z,31.17
2022-12-01T15:45:28.970Z,28.83
2022-12-01T15:50:46.116Z,30.50
2022-12-01T15:55:54.109Z,33.38
2022-12-01T16:01:10.940Z,28.95
2022-12-01T16:06:12.868Z,28.60
2022-12-01T16:11:16.876Z,30.08
2022-12-01T16:16:25.153Z,30.05
2022-12-01T16:21:27.280Z,27.95
2022-12-01T16:26:29.754Z,29.60
2022-12-01T20:08:47.685Z,26.85
2022-12-01T20:14:52.613Z,26.17
2022-12-01T20:21:00.681Z,27.65
2022-12-01T20:33:43.153Z,26.42
2022-12-01T20:39:06.278Z,26.73
2022-12-01T20:44:50.506Z,28.43
2022-12-01T20:51:33.399Z,25.88
2022-12-01T20:57:41.375Z,24.48
2022-12-01T21:44:07.699Z,26.35
2022-12-01T21:56:56.228Z,24.33
2022-12-01T22:15:45.331Z,28.05
2022-12-01T22:20:46.879Z,28.45
2022-12-01T22:25:48.492Z,27.27
2022-12-01T22:30:49.989Z,26.98
2022-12-01T22:35:52.737Z,27.00
2022-12-01T22:41:02.822Z,27.10
2022-12-01T22:46:11.810Z,25.52
2022-12-01T22:51:13.647Z,27.00
2022-12-01T22:56:27.850Z,27.42
2022-12-01T23:01:32.168Z,26.60
2022-12-01T23:06:55.152Z,26.85
2022-12-01T23:12:05.337Z,27.27
2022-12-01T23:17:14.734Z,27.15
2022-12-01T23:22:16.676Z,26.77
2022-12-01T23:27:19.254Z,25.95
2022-12-01T23:32:21.291Z,26.85
2022-12-01T23:37:35.875Z,26.05
2022-12-01T23:42:37.389Z,25.80
2022-12-01T23:47:39.914Z,27.43
2022-12-01T23:52:42.127Z,26.77
2022-12-01T23:57:43.994Z,24.45
